sensor_id;sensor_type;location;lat;lon;timestamp;P1;durP1;ratioP1;P2;durP2;ratioP2
40675;SDS011;26359;48.750;9.314;2023-07-22T00:01:21;14.05;;;12.98;;
40675;SDS011;26359;48.750;9.314;2023-07-22T00:03:47;12.65;;;11.75;;
40675;SDS011;26359;48.750;9.314;2023-07-22T00:06:13;12.45;;;11.65;;
40675;SDS011;26359;48.750;9.314;2023-07-22T00:08:38;16.85;;;15.82;;
40675;SDS011;26359;48.750;9.314;2023-07-22T00:11:04;14.40;;;13.27;;
40675;SDS011;26359;48.750;9.314;2023-07-22T00:13:31;15.95;;;14.95;;
40675;SDS011;26359;48.750;9.314;2023-07-22T00:15:57;16.75;;;15.75;;
40675;SDS011;26359;48.750;9.314;2023-07-22T00:18:24;16.88;;;15.85;;
40675;SDS011;26359;48.750;9.314;2023-07-22T00:20:52;24.52;;;22.92;;
40675;SDS011;26359;48.750;9.314;2023-07-22T00:23:17;37.35;;;35.13;;
40675;SDS011;26359;48.750;9.314;2023-07-22T00:25:43;26.60;;;25.10;;
40675;SDS011;26359;48.750;9.314;2023-07-22T00:28:08;37.28;;;35.17;;
40675;SDS011;26359;48.750;9.314;2023-07-22T00:30:35;38.20;;;35.92;;
40675;SDS011;26359;48.750;9.314;2023-07-22T00:33:00;44.05;;;41.72;;
40675;SDS011;26359;48.750;9.314;2023-07-22T00:35:26;30.35;;;28.35;;
40675;SDS011;26359;48.750;9.314;2023-07-22T00:37:51;29.73;;;28.02;;
40675;SDS011;26359;48.750;9.314;2023-07-22T00:40:17;41.83;;;39.47;;
40675;SDS011;26359;48.750;9.314;2023-07-22T00:42:43;14.02;;;13.02;;
40675;SDS011;26359;48.750;9.314;2023-07-22T00:45:08;14.80;;;13.80;;
40675;SDS011;26359;48.750;9.314;2023-07-22T00:47:34;16.75;;;15.68;;
40675;SDS011;26359;48.750;9.314;2023-07-22T00:50:03;17.27;;;16.08;;
40675;SDS011;26359;48.750;9.314;2023-07-22T00:52:31;15.98;;;14.80;;
40675;SDS011;26359;48.750;9.314;2023-07-22T00:54:57;15.52;;;14.70;;
40675;SDS011;26359;48.750;9.314;2023-07-22T00:57:23;10.75;;;10.05;;
40675;SDS011;26359;48.750;9.314;2023-07-22T00:59:49;14.20;;;13.32;;
40675;SDS011;26359;48.750;9.314;2023-07-22T01:02:14;15.43;;;14.45;;
40675;SDS011;26359;48.750;9.314;2023-07-22T01:04:40;11.85;;;11.05;;
40675;SDS011;26359;48.750;9.314;2023-07-22T01:07:06;15.13;;;14.23;;
40675;SDS011;26359;48.750;9.314;2023-07-22T01:09:38;12.73;;;12.00;;
40675;SDS011;26359;48.750;9.314;2023-07-22T01:12:04;14.75;;;13.90;;
40675;SDS011;26359;48.750;9.314;2023-07-22T01:14:31;9.73;;;8.90;;
40675;SDS011;26359;48.750;9.314;2023-07-22T01:16:59;9.73;;;9.10;;
40675;SDS011;26359;48.750;9.314;2023-07-22T01:19:26;12.93;;;11.75;;
40675;SDS011;26359;48.750;9.314;2023-07-22T01:21:53;9.77;;;9.07;;
40675;SDS011;26359;48.750;9.314;2023-07-22T01:24:19;9.90;;;9.02;;
40675;SDS011;26359;48.750;9.314;2023-07-22T01:26:45;9.02;;;8.32;;
40675;SDS011;26359;48.750;9.314;2023-07-22T01:29:10;10.43;;;9.63;;
40675;SDS011;26359;48.750;9.314;2023-07-22T01:31:38;11.93;;;11.13;;
40675;SDS011;26359;48.750;9.314;2023-07-22T01:34:04;9.95;;;9.25;;
40675;SDS011;26359;48.750;9.314;2023-07-22T01:36:30;13.07;;;12.27;;
40675;SDS011;26359;48.750;9.314;2023-07-22T01:38:55;9.43;;;8.82;;
40675;SDS011;26359;48.750;9.314;2023-07-22T01:41:21;11.70;;;10.80;;
40675;SDS011;26359;48.750;9.314;2023-07-22T01:43:46;13.73;;;12.82;;
40675;SDS011;26359;48.750;9.314;2023-07-22T01:46:12;10.90;;;10.20;;
40675;SDS011;26359;48.750;9.314;2023-07-22T01:48:37;32.40;;;30.58;;
40675;SDS011;26359;48.750;9.314;2023-07-22T01:51:03;23.42;;;22.08;;
40675;SDS011;26359;48.750;9.314;2023-07-22T01:53:30;28.88;;;27.20;;
40675;SDS011;26359;48.750;9.314;2023-07-22T01:55:55;21.70;;;20.17;;
40675;SDS011;26359;48.750;9.314;2023-07-22T01:58:21;19.00;;;17.80;;
40675;SDS011;26359;48.750;9.314;2023-07-22T02:00:52;18.35;;;17.20;;
40675;SDS011;26359;48.750;9.314;2023-07-22T02:03:18;13.73;;;12.93;;
40675;SDS011;26359;48.750;9.314;2023-07-22T02:05:43;17.65;;;16.48;;
40675;SDS011;26359;48.750;9.314;2023-07-22T02:08:09;27.00;;;25.45;;
40675;SDS011;26359;48.750;9.314;2023-07-22T02:10:35;28.88;;;27.17;;
40675;SDS011;26359;48.750;9.314;2023-07-22T02:13:00;42.75;;;40.35;;
40675;SDS011;26359;48.750;9.314;2023-07-22T02:15:28;46.80;;;44.28;;
40675;SDS011;26359;48.750;9.314;2023-07-22T02:17:53;111.18;;;105.32;;
40675;SDS011;26359;48.750;9.314;2023-07-22T02:20:20;103.85;;;98.40;;
40675;SDS011;26359;48.750;9.314;2023-07-22T02:22:45;67.63;;;64.10;;
40675;SDS011;26359;48.750;9.314;2023-07-22T02:25:11;49.80;;;46.95;;
40675;SDS011;26359;48.750;9.314;2023-07-22T02:27:36;39.10;;;37.00;;
40675;SDS011;26359;48.750;9.314;2023-07-22T02:30:02;40.33;;;38.10;;
40675;SDS011;26359;48.750;9.314;2023-07-22T02:32:29;24.63;;;23.13;;
40675;SDS011;26359;48.750;9.314;2023-07-22T02:34:55;11.50;;;10.80;;
40675;SDS011;26359;48.750;9.314;2023-07-22T02:37:20;25.27;;;23.77;;
40675;SDS011;26359;48.750;9.314;2023-07-22T02:39:46;22.75;;;21.40;;
40675;SDS011;26359;48.750;9.314;2023-07-22T02:42:12;19.63;;;18.33;;
40675;SDS011;26359;48.750;9.314;2023-07-22T02:44:37;33.33;;;31.42;;
40675;SDS011;26359;48.750;9.314;2023-07-22T02:47:03;28.92;;;27.05;;
40675;SDS011;26359;48.750;9.314;2023-07-22T02:49:28;29.92;;;28.10;;
40675;SDS011;26359;48.750;9.314;2023-07-22T02:51:54;29.13;;;27.40;;
40675;SDS011;26359;48.750;9.314;2023-07-22T02:54:19;29.58;;;27.80;;
40675;SDS011;26359;48.750;9.314;2023-07-22T02:56:45;15.70;;;14.70;;
40675;SDS011;26359;48.750;9.314;2023-07-22T02:59:10;12.85;;;11.48;;
40675;SDS011;26359;48.750;9.314;2023-07-22T03:01:36;13.85;;;12.95;;
40675;SDS011;26359;48.750;9.314;2023-07-22T03:04:02;12.45;;;11.65;;
40675;SDS011;26359;48.750;9.314;2023-07-22T03:06:29;14.88;;;13.85;;
40675;SDS011;26359;48.750;9.314;2023-07-22T03:08:56;8.55;;;7.88;;
40675;SDS011;26359;48.750;9.314;2023-07-22T03:11:23;8.15;;;7.55;;
40675;SDS011;26359;48.750;9.314;2023-07-22T03:13:50;8.60;;;7.00;;
40675;SDS011;26359;48.750;9.314;2023-07-22T03:16:16;7.32;;;6.68;;
40675;SDS011;26359;48.750;9.314;2023-07-22T03:18:41;7.82;;;7.07;;
40675;SDS011;26359;48.750;9.314;2023-07-22T03:21:08;7.65;;;6.97;;
40675;SDS011;26359;48.750;9.314;2023-07-22T03:23:34;11.30;;;10.23;;
40675;SDS011;26359;48.750;9.314;2023-07-22T03:25:59;8.13;;;7.50;;
40675;SDS011;26359;48.750;9.314;2023-07-22T03:28:25;11.38;;;10.48;;
40675;SDS011;26359;48.750;9.314;2023-07-22T03:30:51;8.45;;;7.85;;
40675;SDS011;26359;48.750;9.314;2023-07-22T03:33:17;8.80;;;8.10;;
40675;SDS011;26359;48.750;9.314;2023-07-22T03:35:43;10.13;;;9.27;;
40675;SDS011;26359;48.750;9.314;2023-07-22T03:38:09;8.93;;;8.23;;
40675;SDS011;26359;48.750;9.314;2023-07-22T03:40:34;8.73;;;7.97;;
40675;SDS011;26359;48.750;9.314;2023-07-22T03:43:00;9.65;;;8.95;;
40675;SDS011;26359;48.750;9.314;2023-07-22T03:45:26;11.32;;;10.50;;
40675;SDS011;26359;48.750;9.314;2023-07-22T03:47:53;9.75;;;8.95;;
40675;SDS011;26359;48.750;9.314;2023-07-22T03:50:21;12.68;;;11.88;;
40675;SDS011;26359;48.750;9.314;2023-07-22T03:52:47;8.18;;;7.53;;
40675;SDS011;26359;48.750;9.314;2023-07-22T03:55:12;13.35;;;12.50;;
40675;SDS011;26359;48.750;9.314;2023-07-22T03:57:38;12.05;;;11.07;;
40675;SDS011;26359;48.750;9.314;2023-07-22T04:00:04;8.10;;;7.50;;
40675;SDS011;26359;48.750;9.314;2023-07-22T04:02:30;12.60;;;11.63;;
40675;SDS011;26359;48.750;9.314;2023-07-22T04:04:56;7.57;;;6.97;;
40675;SDS011;26359;48.750;9.314;2023-07-22T04:07:22;7.95;;;7.25;;
40675;SDS011;26359;48.750;9.314;2023-07-22T04:09:48;7.13;;;6.55;;
40675;SDS011;26359;48.750;9.314;2023-07-22T04:12:14;7.15;;;6.55;;
40675;SDS011;26359;48.750;9.314;2023-07-22T04:14:39;7.35;;;6.75;;
40675;SDS011;26359;48.750;9.314;2023-07-22T04:17:05;8.35;;;7.65;;
40675;SDS011;26359;48.750;9.314;2023-07-22T04:19:31;10.15;;;9.13;;
40675;SDS011;26359;48.750;9.314;2023-07-22T04:21:57;8.70;;;7.78;;
40675;SDS011;26359;48.750;9.314;2023-07-22T04:24:24;8.85;;;7.82;;
40675;SDS011;26359;48.750;9.314;2023-07-22T04:26:50;9.48;;;8.63;;
40675;SDS011;26359;48.750;9.314;2023-07-22T04:29:16;9.25;;;8.45;;
40675;SDS011;26359;48.750;9.314;2023-07-22T04:31:41;8.90;;;8.20;;
40675;SDS011;26359;48.750;9.314;2023-07-22T04:34:07;7.15;;;6.65;;
40675;SDS011;26359;48.750;9.314;2023-07-22T04:36:33;9.35;;;8.48;;
40675;SDS011;26359;48.750;9.314;2023-07-22T04:38:58;7.32;;;6.80;;
40675;SDS011;26359;48.750;9.314;2023-07-22T04:41:24;12.43;;;11.50;;
40675;SDS011;26359;48.750;9.314;2023-07-22T04:43:50;16.70;;;15.60;;
40675;SDS011;26359;48.750;9.314;2023-07-22T04:46:16;15.82;;;14.73;;
40675;SDS011;26359;48.750;9.314;2023-07-22T04:48:42;19.15;;;17.95;;
40675;SDS011;26359;48.750;9.314;2023-07-22T04:51:08;17.63;;;16.52;;
40675;SDS011;26359;48.750;9.314;2023-07-22T04:53:33;14.45;;;13.43;;
40675;SDS011;26359;48.750;9.314;2023-07-22T04:55:59;16.63;;;15.63;;
40675;SDS011;26359;48.750;9.314;2023-07-22T04:58:24;12.45;;;11.35;;
40675;SDS011;26359;48.750;9.314;2023-07-22T05:00:50;9.27;;;8.48;;
40675;SDS011;26359;48.750;9.314;2023-07-22T05:03:16;12.13;;;11.25;;
40675;SDS011;26359;48.750;9.314;2023-07-22T05:05:43;13.85;;;13.05;;
40675;SDS011;26359;48.750;9.314;2023-07-22T05:08:08;16.58;;;15.27;;
40675;SDS011;26359;48.750;9.314;2023-07-22T05:10:34;15.70;;;14.70;;
40675;SDS011;26359;48.750;9.314;2023-07-22T05:12:59;10.60;;;9.88;;
40675;SDS011;26359;48.750;9.314;2023-07-22T05:15:25;10.95;;;10.18;;
40675;SDS011;26359;48.750;9.314;2023-07-22T05:17:50;17.80;;;16.40;;
40675;SDS011;26359;48.750;9.314;2023-07-22T05:20:16;17.08;;;16.02;;
40675;SDS011;26359;48.750;9.314;2023-07-22T05:22:42;15.25;;;14.05;;
40675;SDS011;26359;48.750;9.314;2023-07-22T05:25:08;12.88;;;11.93;;
40675;SDS011;26359;48.750;9.314;2023-07-22T05:27:34;12.15;;;11.35;;
40675;SDS011;26359;48.750;9.314;2023-07-22T05:30:01;12.82;;;11.68;;
40675;SDS011;26359;48.750;9.314;2023-07-22T05:32:30;13.40;;;12.43;;
40675;SDS011;26359;48.750;9.314;2023-07-22T05:34:56;21.48;;;20.23;;
40675;SDS011;26359;48.750;9.314;2023-07-22T05:37:22;14.95;;;13.95;;
40675;SDS011;26359;48.750;9.314;2023-07-22T05:39:48;17.10;;;15.90;;
40675;SDS011;26359;48.750;9.314;2023-07-22T05:42:15;26.40;;;24.45;;
40675;SDS011;26359;48.750;9.314;2023-07-22T05:44:41;24.45;;;22.80;;
40675;SDS011;26359;48.750;9.314;2023-07-22T05:47:07;21.83;;;20.48;;
40675;SDS011;26359;48.750;9.314;2023-07-22T05:49:32;25.65;;;24.10;;
40675;SDS011;26359;48.750;9.314;2023-07-22T05:51:58;25.95;;;24.40;;
40675;SDS011;26359;48.750;9.314;2023-07-22T05:54:23;22.60;;;21.20;;
40675;SDS011;26359;48.750;9.314;2023-07-22T05:56:49;24.02;;;22.13;;
40675;SDS011;26359;48.750;9.314;2023-07-22T05:59:14;22.45;;;21.00;;
40675;SDS011;26359;48.750;9.314;2023-07-22T06:01:40;27.80;;;26.17;;
40675;SDS011;26359;48.750;9.314;2023-07-22T06:04:05;26.80;;;24.95;;
40675;SDS011;26359;48.750;9.314;2023-07-22T06:06:31;18.45;;;17.05;;
40675;SDS011;26359;48.750;9.314;2023-07-22T06:08:57;29.52;;;27.65;;
40675;SDS011;26359;48.750;9.314;2023-07-22T06:11:22;31.63;;;29.67;;
40675;SDS011;26359;48.750;9.314;2023-07-22T06:13:48;19.52;;;18.23;;
40675;SDS011;26359;48.750;9.314;2023-07-22T06:16:13;11.48;;;10.65;;
40675;SDS011;26359;48.750;9.314;2023-07-22T06:18:39;12.85;;;11.93;;
40675;SDS011;26359;48.750;9.314;2023-07-22T06:21:05;10.73;;;9.82;;
40675;SDS011;26359;48.750;9.314;2023-07-22T06:23:30;10.02;;;9.32;;
40675;SDS011;26359;48.750;9.314;2023-07-22T06:25:56;11.77;;;10.73;;
40675;SDS011;26359;48.750;9.314;2023-07-22T06:28:22;12.02;;;11.13;;
40675;SDS011;26359;48.750;9.314;2023-07-22T06:30:47;16.83;;;15.70;;
40675;SDS011;26359;48.750;9.314;2023-07-22T06:33:13;20.58;;;19.20;;
40675;SDS011;26359;48.750;9.314;2023-07-22T06:35:38;18.10;;;16.90;;
40675;SDS011;26359;48.750;9.314;2023-07-22T06:38:04;19.38;;;18.17;;
40675;SDS011;26359;48.750;9.314;2023-07-22T06:40:29;17.08;;;15.98;;
40675;SDS011;26359;48.750;9.314;2023-07-22T06:42:55;40.13;;;37.88;;
40675;SDS011;26359;48.750;9.314;2023-07-22T06:45:20;68.47;;;64.85;;
40675;SDS011;26359;48.750;9.314;2023-07-22T06:47:46;45.88;;;43.40;;
40675;SDS011;26359;48.750;9.314;2023-07-22T06:50:12;46.42;;;43.67;;
40675;SDS011;26359;48.750;9.314;2023-07-22T06:52:37;24.58;;;23.10;;
40675;SDS011;26359;48.750;9.314;2023-07-22T06:55:03;16.00;;;14.88;;
40675;SDS011;26359;48.750;9.314;2023-07-22T06:57:30;11.85;;;10.93;;
40675;SDS011;26359;48.750;9.314;2023-07-22T06:59:55;11.55;;;10.73;;
40675;SDS011;26359;48.750;9.314;2023-07-22T07:02:21;13.55;;;12.65;;
40675;SDS011;26359;48.750;9.314;2023-07-22T07:04:47;13.80;;;12.85;;
40675;SDS011;26359;48.750;9.314;2023-07-22T07:07:13;22.92;;;21.25;;
40675;SDS011;26359;48.750;9.314;2023-07-22T07:09:39;20.23;;;18.67;;
40675;SDS011;26359;48.750;9.314;2023-07-22T07:12:05;14.65;;;13.75;;
40675;SDS011;26359;48.750;9.314;2023-07-22T07:14:32;12.95;;;11.95;;
40675;SDS011;26359;48.750;9.314;2023-07-22T07:16:58;13.38;;;12.18;;
40675;SDS011;26359;48.750;9.314;2023-07-22T07:19:24;11.55;;;10.77;;
40675;SDS011;26359;48.750;9.314;2023-07-22T07:21:50;11.20;;;10.15;;
40675;SDS011;26359;48.750;9.314;2023-07-22T07:24:16;8.43;;;7.68;;
40675;SDS011;26359;48.750;9.314;2023-07-22T07:26:41;6.95;;;6.40;;
40675;SDS011;26359;48.750;9.314;2023-07-22T07:29:07;6.95;;;5.95;;
40675;SDS011;26359;48.750;9.314;2023-07-22T07:31:32;8.25;;;7.07;;
40675;SDS011;26359;48.750;9.314;2023-07-22T07:33:58;12.65;;;11.65;;
40675;SDS011;26359;48.750;9.314;2023-07-22T07:36:23;12.27;;;11.35;;
40675;SDS011;26359;48.750;9.314;2023-07-22T07:38:49;12.20;;;11.38;;
40675;SDS011;26359;48.750;9.314;2023-07-22T07:41:14;13.15;;;12.05;;
40675;SDS011;26359;48.750;9.314;2023-07-22T07:43:40;9.68;;;8.95;;
40675;SDS011;26359;48.750;9.314;2023-07-22T07:46:16;9.55;;;8.70;;
40675;SDS011;26359;48.750;9.314;2023-07-22T07:48:45;10.95;;;10.02;;
40675;SDS011;26359;48.750;9.314;2023-07-22T07:51:12;14.93;;;13.75;;
40675;SDS011;26359;48.750;9.314;2023-07-22T07:53:38;15.90;;;14.75;;
40675;SDS011;26359;48.750;9.314;2023-07-22T07:56:04;11.82;;;11.02;;
40675;SDS011;26359;48.750;9.314;2023-07-22T07:58:30;11.73;;;10.80;;
40675;SDS011;26359;48.750;9.314;2023-07-22T08:00:55;21.63;;;20.00;;
40675;SDS011;26359;48.750;9.314;2023-07-22T08:03:21;22.08;;;20.67;;
40675;SDS011;26359;48.750;9.314;2023-07-22T08:05:46;19.15;;;17.90;;
40675;SDS011;26359;48.750;9.314;2023-07-22T08:08:12;11.15;;;10.20;;
40675;SDS011;26359;48.750;9.314;2023-07-22T08:10:37;12.63;;;11.55;;
40675;SDS011;26359;48.750;9.314;2023-07-22T08:13:04;12.30;;;11.50;;
40675;SDS011;26359;48.750;9.314;2023-07-22T08:15:29;12.30;;;11.18;;
40675;SDS011;26359;48.750;9.314;2023-07-22T08:17:55;9.90;;;8.90;;
40675;SDS011;26359;48.750;9.314;2023-07-22T08:20:20;10.18;;;9.38;;
40675;SDS011;26359;48.750;9.314;2023-07-22T08:22:46;18.15;;;16.90;;
40675;SDS011;26359;48.750;9.314;2023-07-22T08:25:11;21.25;;;20.05;;
40675;SDS011;26359;48.750;9.314;2023-07-22T08:27:37;17.40;;;16.30;;
40675;SDS011;26359;48.750;9.314;2023-07-22T08:30:02;13.98;;;13.05;;
40675;SDS011;26359;48.750;9.314;2023-07-22T08:32:28;12.10;;;11.40;;
40675;SDS011;26359;48.750;9.314;2023-07-22T08:34:54;13.35;;;12.55;;
40675;SDS011;26359;48.750;9.314;2023-07-22T08:37:19;10.50;;;9.63;;
40675;SDS011;26359;48.750;9.314;2023-07-22T08:39:45;7.35;;;6.75;;
40675;SDS011;26359;48.750;9.314;2023-07-22T08:42:11;10.18;;;9.40;;
40675;SDS011;26359;48.750;9.314;2023-07-22T08:44:38;7.90;;;7.32;;
40675;SDS011;26359;48.750;9.314;2023-07-22T08:47:09;20.90;;;19.65;;
40675;SDS011;26359;48.750;9.314;2023-07-22T08:49:39;22.88;;;21.48;;
40675;SDS011;26359;48.750;9.314;2023-07-22T08:52:10;17.30;;;16.02;;
40675;SDS011;26359;48.750;9.314;2023-07-22T08:54:38;11.60;;;10.88;;
40675;SDS011;26359;48.750;9.314;2023-07-22T08:57:05;11.95;;;11.30;;
40675;SDS011;26359;48.750;9.314;2023-07-22T08:59:32;18.38;;;17.20;;
40675;SDS011;26359;48.750;9.314;2023-07-22T09:01:58;13.05;;;12.27;;
40675;SDS011;26359;48.750;9.314;2023-07-22T09:04:24;22.08;;;20.70;;
40675;SDS011;26359;48.750;9.314;2023-07-22T09:06:53;28.30;;;26.75;;
40675;SDS011;26359;48.750;9.314;2023-07-22T09:09:19;29.00;;;27.38;;
40675;SDS011;26359;48.750;9.314;2023-07-22T09:11:47;33.58;;;31.73;;
40675;SDS011;26359;48.750;9.314;2023-07-22T09:14:13;44.38;;;42.03;;
40675;SDS011;26359;48.750;9.314;2023-07-22T09:16:40;31.45;;;29.48;;
40675;SDS011;26359;48.750;9.314;2023-07-22T09:19:06;17.23;;;16.13;;
40675;SDS011;26359;48.750;9.314;2023-07-22T09:21:31;13.88;;;13.02;;
40675;SDS011;26359;48.750;9.314;2023-07-22T09:24:00;11.57;;;10.90;;
40675;SDS011;26359;48.750;9.314;2023-07-22T09:26:26;8.52;;;7.97;;
40675;SDS011;26359;48.750;9.314;2023-07-22T09:28:52;9.52;;;8.90;;
40675;SDS011;26359;48.750;9.314;2023-07-22T09:31:23;10.10;;;9.40;;
40675;SDS011;26359;48.750;9.314;2023-07-22T09:33:50;9.20;;;8.60;;
40675;SDS011;26359;48.750;9.314;2023-07-22T09:36:16;9.02;;;8.25;;
40675;SDS011;26359;48.750;9.314;2023-07-22T09:38:42;8.02;;;7.30;;
40675;SDS011;26359;48.750;9.314;2023-07-22T09:41:08;7.22;;;6.63;;
40675;SDS011;26359;48.750;9.314;2023-07-22T09:43:38;9.00;;;8.20;;
40675;SDS011;26359;48.750;9.314;2023-07-22T09:46:08;34.22;;;32.40;;
40675;SDS011;26359;48.750;9.314;2023-07-22T09:48:41;22.52;;;21.33;;
40675;SDS011;26359;48.750;9.314;2023-07-22T09:51:14;12.57;;;11.80;;
40675;SDS011;26359;48.750;9.314;2023-07-22T09:53:59;13.35;;;12.52;;
40675;SDS011;26359;48.750;9.314;2023-07-22T09:58:51;9.97;;;9.37;;
40675;SDS011;26359;48.750;9.314;2023-07-22T10:01:19;22.95;;;21.75;;
40675;SDS011;26359;48.750;9.314;2023-07-22T10:03:47;19.45;;;18.35;;
40675;SDS011;26359;48.750;9.314;2023-07-22T10:06:19;21.48;;;20.13;;
40675;SDS011;26359;48.750;9.314;2023-07-22T10:08:48;12.40;;;11.50;;
40675;SDS011;26359;48.750;9.314;2023-07-22T10:11:14;11.30;;;10.60;;
40675;SDS011;26359;48.750;9.314;2023-07-22T10:13:40;33.83;;;31.83;;
40675;SDS011;26359;48.750;9.314;2023-07-22T10:16:05;18.98;;;17.83;;
40675;SDS011;26359;48.750;9.314;2023-07-22T10:18:32;12.95;;;12.23;;
40675;SDS011;26359;48.750;9.314;2023-07-22T10:20:58;11.30;;;10.60;;
40675;SDS011;26359;48.750;9.314;2023-07-22T10:23:25;14.60;;;13.50;;
40675;SDS011;26359;48.750;9.314;2023-07-22T10:25:52;18.02;;;17.00;;
40675;SDS011;26359;48.750;9.314;2023-07-22T10:28:20;18.05;;;17.02;;
40675;SDS011;26359;48.750;9.314;2023-07-22T10:30:47;20.52;;;19.42;;
40675;SDS011;26359;48.750;9.314;2023-07-22T10:33:12;9.38;;;8.68;;
40675;SDS011;26359;48.750;9.314;2023-07-22T10:35:41;6.03;;;5.63;;
40675;SDS011;26359;48.750;9.314;2023-07-22T10:40:52;6.00;;;5.50;;
40675;SDS011;26359;48.750;9.314;2023-07-22T10:45:55;6.97;;;6.47;;
40675;SDS011;26359;48.750;9.314;2023-07-22T10:48:24;5.07;;;4.78;;
40675;SDS011;26359;48.750;9.314;2023-07-22T10:50:53;6.07;;;5.68;;
40675;SDS011;26359;48.750;9.314;2023-07-22T11:04:03;8.35;;;7.75;;
40675;SDS011;26359;48.750;9.314;2023-07-22T11:06:30;11.07;;;10.25;;
40675;SDS011;26359;48.750;9.314;2023-07-22T11:08:56;8.13;;;7.63;;
40675;SDS011;26359;48.750;9.314;2023-07-22T11:11:33;8.32;;;7.82;;
40675;SDS011;26359;48.750;9.314;2023-07-22T11:17:03;12.05;;;11.35;;
40675;SDS011;26359;48.750;9.314;2023-07-22T11:19:30;7.85;;;7.35;;
40675;SDS011;26359;48.750;9.314;2023-07-22T11:21:56;25.33;;;24.00;;
40675;SDS011;26359;48.750;9.314;2023-07-22T11:24:22;35.75;;;33.80;;
40675;SDS011;26359;48.750;9.314;2023-07-22T11:26:49;10.20;;;9.48;;
40675;SDS011;26359;48.750;9.314;2023-07-22T11:29:16;12.50;;;11.85;;
40675;SDS011;26359;48.750;9.314;2023-07-22T11:31:43;26.45;;;24.95;;
40675;SDS011;26359;48.750;9.314;2023-07-22T11:34:10;6.50;;;6.03;;
40675;SDS011;26359;48.750;9.314;2023-07-22T11:36:39;11.95;;;11.15;;
40675;SDS011;26359;48.750;9.314;2023-07-22T11:39:08;14.82;;;13.88;;
40675;SDS011;26359;48.750;9.314;2023-07-22T11:41:36;11.55;;;10.90;;
40675;SDS011;26359;48.750;9.314;2023-07-22T11:44:03;8.18;;;7.57;;
40675;SDS011;26359;48.750;9.314;2023-07-22T11:46:33;12.82;;;12.07;;
40675;SDS011;26359;48.750;9.314;2023-07-22T11:48:59;6.03;;;5.63;;
40675;SDS011;26359;48.750;9.314;2023-07-22T11:51:25;7.20;;;6.70;;
40675;SDS011;26359;48.750;9.314;2023-07-22T11:53:51;7.00;;;6.53;;
40675;SDS011;26359;48.750;9.314;2023-07-22T11:56:27;8.43;;;7.82;;
40675;SDS011;26359;48.750;9.314;2023-07-22T11:58:56;13.32;;;12.55;;
40675;SDS011;26359;48.750;9.314;2023-07-22T12:01:22;7.15;;;6.65;;
40675;SDS011;26359;48.750;9.314;2023-07-22T12:03:48;8.63;;;8.02;;
40675;SDS011;26359;48.750;9.314;2023-07-22T12:06:15;10.43;;;9.80;;
40675;SDS011;26359;48.750;9.314;2023-07-22T12:08:44;9.20;;;8.32;;
40675;SDS011;26359;48.750;9.314;2023-07-22T12:11:18;15.70;;;14.75;;
40675;SDS011;26359;48.750;9.314;2023-07-22T12:13:49;14.77;;;13.93;;
40675;SDS011;26359;48.750;9.314;2023-07-22T12:16:29;24.90;;;23.55;;
40675;SDS011;26359;48.750;9.314;2023-07-22T12:18:54;19.63;;;18.63;;
40675;SDS011;26359;48.750;9.314;2023-07-22T12:21:21;11.93;;;11.32;;
40675;SDS011;26359;48.750;9.314;2023-07-22T12:23:47;6.57;;;6.00;;
40675;SDS011;26359;48.750;9.314;2023-07-22T12:26:12;6.40;;;6.00;;
40675;SDS011;26359;48.750;9.314;2023-07-22T12:28:38;8.27;;;7.78;;
40675;SDS011;26359;48.750;9.314;2023-07-22T12:31:04;8.25;;;7.68;;
40675;SDS011;26359;48.750;9.314;2023-07-22T12:33:29;10.82;;;10.20;;
40675;SDS011;26359;48.750;9.314;2023-07-22T12:35:56;9.13;;;8.63;;
40675;SDS011;26359;48.750;9.314;2023-07-22T12:38:22;6.85;;;6.45;;
40675;SDS011;26359;48.750;9.314;2023-07-22T12:40:48;6.32;;;5.93;;
40675;SDS011;26359;48.750;9.314;2023-07-22T12:43:14;5.72;;;5.32;;
40675;SDS011;26359;48.750;9.314;2023-07-22T12:45:40;6.78;;;6.22;;
40675;SDS011;26359;48.750;9.314;2023-07-22T12:48:05;4.85;;;4.55;;
40675;SDS011;26359;48.750;9.314;2023-07-22T12:50:31;5.00;;;4.50;;
40675;SDS011;26359;48.750;9.314;2023-07-22T12:52:57;6.45;;;6.05;;
40675;SDS011;26359;48.750;9.314;2023-07-22T12:55:23;6.45;;;6.05;;
40675;SDS011;26359;48.750;9.314;2023-07-22T12:57:49;22.35;;;21.13;;
40675;SDS011;26359;48.750;9.314;2023-07-22T13:00:15;6.28;;;5.88;;
40675;SDS011;26359;48.750;9.314;2023-07-22T13:02:40;4.82;;;4.43;;
40675;SDS011;26359;48.750;9.314;2023-07-22T13:05:06;7.30;;;6.80;;
40675;SDS011;26359;48.750;9.314;2023-07-22T13:07:32;7.70;;;7.18;;
40675;SDS011;26359;48.750;9.314;2023-07-22T13:09:58;16.10;;;15.23;;
40675;SDS011;26359;48.750;9.314;2023-07-22T13:12:26;13.50;;;12.60;;
40675;SDS011;26359;48.750;9.314;2023-07-22T13:14:51;7.07;;;6.57;;
40675;SDS011;26359;48.750;9.314;2023-07-22T13:17:17;7.47;;;6.88;;
40675;SDS011;26359;48.750;9.314;2023-07-22T13:19:42;11.50;;;10.80;;
40675;SDS011;26359;48.750;9.314;2023-07-22T13:22:08;10.90;;;10.15;;
40675;SDS011;26359;48.750;9.314;2023-07-22T13:24:33;10.68;;;10.05;;
40675;SDS011;26359;48.750;9.314;2023-07-22T13:26:59;9.32;;;8.50;;
40675;SDS011;26359;48.750;9.314;2023-07-22T13:29:24;8.75;;;8.15;;
40675;SDS011;26359;48.750;9.314;2023-07-22T13:31:50;7.95;;;7.45;;
40675;SDS011;26359;48.750;9.314;2023-07-22T13:34:15;8.15;;;7.65;;
40675;SDS011;26359;48.750;9.314;2023-07-22T13:36:41;6.60;;;6.20;;
40675;SDS011;26359;48.750;9.314;2023-07-22T13:39:07;6.63;;;6.22;;
40675;SDS011;26359;48.750;9.314;2023-07-22T13:41:32;7.45;;;6.80;;
40675;SDS011;26359;48.750;9.314;2023-07-22T13:43:58;8.25;;;7.55;;
40675;SDS011;26359;48.750;9.314;2023-07-22T13:46:23;10.63;;;10.02;;
40675;SDS011;26359;48.750;9.314;2023-07-22T13:48:49;6.80;;;6.38;;
40675;SDS011;26359;48.750;9.314;2023-07-22T13:51:14;8.63;;;8.13;;
40675;SDS011;26359;48.750;9.314;2023-07-22T13:53:40;7.85;;;7.18;;
40675;SDS011;26359;48.750;9.314;2023-07-22T13:56:05;6.75;;;6.25;;
40675;SDS011;26359;48.750;9.314;2023-07-22T13:58:32;10.15;;;9.48;;
40675;SDS011;26359;48.750;9.314;2023-07-22T14:00:57;6.70;;;6.03;;
40675;SDS011;26359;48.750;9.314;2023-07-22T14:03:23;10.07;;;9.52;;
40675;SDS011;26359;48.750;9.314;2023-07-22T14:05:48;6.28;;;5.75;;
40675;SDS011;26359;48.750;9.314;2023-07-22T14:08:14;19.48;;;18.25;;
40675;SDS011;26359;48.750;9.314;2023-07-22T14:10:39;13.57;;;12.73;;
40675;SDS011;26359;48.750;9.314;2023-07-22T14:13:05;9.32;;;8.57;;
40675;SDS011;26359;48.750;9.314;2023-07-22T14:15:30;6.72;;;6.13;;
40675;SDS011;26359;48.750;9.314;2023-07-22T14:17:56;5.47;;;5.07;;
40675;SDS011;26359;48.750;9.314;2023-07-22T14:20:21;6.07;;;5.57;;
40675;SDS011;26359;48.750;9.314;2023-07-22T14:22:47;5.90;;;5.40;;
40675;SDS011;26359;48.750;9.314;2023-07-22T14:25:15;5.90;;;5.40;;
40675;SDS011;26359;48.750;9.314;2023-07-22T14:27:41;13.25;;;8.73;;
40675;SDS011;26359;48.750;9.314;2023-07-22T14:30:07;7.65;;;7.05;;
40675;SDS011;26359;48.750;9.314;2023-07-22T14:32:33;7.75;;;7.05;;
40675;SDS011;26359;48.750;9.314;2023-07-22T14:34:58;9.45;;;8.65;;
40675;SDS011;26359;48.750;9.314;2023-07-22T14:37:24;17.10;;;15.30;;
40675;SDS011;26359;48.750;9.314;2023-07-22T14:39:49;9.73;;;9.02;;
40675;SDS011;26359;48.750;9.314;2023-07-22T14:42:15;10.98;;;10.07;;
40675;SDS011;26359;48.750;9.314;2023-07-22T14:44:40;12.48;;;11.57;;
40675;SDS011;26359;48.750;9.314;2023-07-22T14:47:06;7.45;;;6.90;;